Time;durP1;ratioP1;P1;durP2;ratioP2;P2;SDS_P1;SDS_P2;PMS_P1;PMS_P2;Temp;Humidity;BMP_temperature;BMP_pressure;BME280_temperature;BME280_humidity;BME280_pressure;Samples;Min_cycle;Max_cycle;Signal;HPM_P1;HPM_P2
2021/10/22 00:01:56;;;;;;;8.27;2.40;;;8.70;93.10;;;;;;5095773;28;20444;-66
2021/10/22 00:04:23;;;;;;;8.03;2.67;;;8.70;93.20;;;;;;5095959;28;20448;-66
2021/10/22 00:06:50;;;;;;;12.80;2.87;;;8.70;93.30;;;;;;5096001;28;20448;-66
2021/10/22 00:12:39;;;;;;;12.63;3.00;;;8.70;93.30;;;;;;5096255;28;20417;-66
2021/10/22 00:15:09;;;;;;;9.30;3.50;;;8.60;93.20;;;;;;5096008;28;20486;-67
2021/10/22 00:17:37;;;;;;;19.20;3.97;;;8.70;93.40;;;;;;5097124;28;20452;-67
2021/10/22 00:20:05;;;;;;;7.70;2.57;;;8.60;93.30;;;;;;5095784;28;20464;-67
2021/10/22 00:22:32;;;;;;;11.00;2.97;;;8.60;93.40;;;;;;5095330;28;20821;-67
2021/10/22 00:24:59;;;;;;;13.37;2.50;;;8.50;93.20;;;;;;5095552;28;20455;-67
2021/10/22 00:27:25;;;;;;;7.73;2.50;;;8.50;93.40;;;;;;5095522;28;20439;-67
2021/10/22 00:29:52;;;;;;;15.40;2.63;;;8.50;93.40;;;;;;5095048;28;20494;-67
2021/10/22 00:32:20;;;;;;;8.53;2.57;;;8.50;93.60;;;;;;5094401;28;20443;-67
2021/10/22 00:34:47;;;;;;;12.23;2.67;;;8.50;93.40;;;;;;5095379;28;20451;-67
2021/10/22 00:37:14;;;;;;;14.53;3.10;;;8.50;93.50;;;;;;5095086;28;20459;-67
2021/10/22 00:39:41;;;;;;;7.07;2.50;;;8.50;93.40;;;;;;5094933;28;20998;-67
2021/10/22 00:42:08;;;;;;;9.63;3.60;;;8.50;93.50;;;;;;5095266;28;20482;-66
2021/10/22 00:44:36;;;;;;;10.30;2.90;;;8.50;93.60;;;;;;5095188;28;20518;-66
2021/10/22 00:47:04;;;;;;;10.07;3.07;;;8.40;93.60;;;;;;5095234;28;20501;-66
2021/10/22 00:49:32;;;;;;;7.73;2.77;;;8.40;93.50;;;;;;5094946;28;20483;-67
2021/10/22 00:52:00;;;;;;;8.60;3.10;;;8.40;93.50;;;;;;5095099;28;20444;-66
2021/10/22 00:54:26;;;;;;;6.40;2.70;;;8.40;93.60;;;;;;5095056;28;20808;-67
2021/10/22 00:56:54;;;;;;;10.57;3.87;;;8.30;93.70;;;;;;5095005;28;20450;-67
2021/10/22 00:59:20;;;;;;;11.90;4.33;;;8.40;93.70;;;;;;5094864;28;20829;-67
2021/10/22 01:01:47;;;;;;;10.90;3.10;;;8.30;93.60;;;;;;5094907;28;20471;-66
2021/10/22 01:04:14;;;;;;;13.97;3.53;;;8.30;93.80;;;;;;5094784;28;20450;-67
2021/10/22 01:06:42;;;;;;;10.93;3.17;;;8.40;94.00;;;;;;5094823;28;20466;-66
2021/10/22 01:09:11;;;;;;;17.27;3.47;;;8.40;93.70;;;;;;5094598;28;20483;-66
2021/10/22 01:11:39;;;;;;;11.03;3.67;;;8.40;93.70;;;;;;5094648;28;20447;-66
2021/10/22 01:14:07;;;;;;;9.67;3.83;;;8.40;93.70;;;;;;5094313;28;20444;-66
2021/10/22 01:16:36;;;;;;;5.27;2.67;;;8.40;93.70;;;;;;5095515;28;20461;-66
2021/10/22 01:19:03;;;;;;;12.93;3.33;;;8.40;93.70;;;;;;5094499;28;20460;-67
2021/10/22 01:21:32;;;;;;;11.93;3.33;;;8.40;93.40;;;;;;5094207;28;20957;-67
2021/10/22 01:23:59;;;;;;;18.83;3.60;;;8.40;93.40;;;;;;5094399;28;20444;-66
2021/10/22 01:26:27;;;;;;;8.70;2.80;;;8.30;93.50;;;;;;5094106;28;20450;-67
2021/10/22 01:28:53;;;;;;;8.67;3.60;;;8.30;93.50;;;;;;5094205;28;20483;-67
2021/10/22 01:31:21;;;;;;;13.43;4.40;;;8.30;93.50;;;;;;5094303;28;20448;-67
2021/10/22 01:33:49;;;;;;;12.07;2.90;;;8.30;93.60;;;;;;5094008;28;20957;-67
2021/10/22 01:36:16;;;;;;;12.00;3.30;;;8.30;94.00;;;;;;5094517;28;20483;-67
2021/10/22 01:38:46;;;;;;;16.90;3.63;;;8.30;93.50;;;;;;5093863;28;20866;-67
2021/10/22 01:41:13;;;;;;;10.90;3.80;;;8.30;93.60;;;;;;5094161;28;20542;-67
2021/10/22 01:43:41;;;;;;;17.67;3.33;;;8.30;93.50;;;;;;5093978;28;20447;-67
2021/10/22 01:46:08;;;;;;;11.33;3.53;;;8.30;93.50;;;;;;5094152;28;20496;-66
2021/10/22 01:48:34;;;;;;;9.23;3.30;;;8.20;93.20;;;;;;5093863;28;20471;-67
2021/10/22 01:51:01;;;;;;;12.57;4.30;;;8.20;93.30;;;;;;5093975;28;20447;-66
2021/10/22 01:53:28;;;;;;;10.87;3.30;;;8.20;93.30;;;;;;5093910;28;20453;-66
2021/10/22 01:55:56;;;;;;;17.80;4.20;;;8.20;93.40;;;;;;5093863;28;20439;-66
2021/10/22 01:58:23;;;;;;;11.07;3.20;;;8.10;93.30;;;;;;5093905;28;20435;-66
2021/10/22 02:00:50;;;;;;;11.93;3.10;;;8.10;93.30;;;;;;5094304;28;20466;-66
2021/10/22 02:03:17;;;;;;;9.00;3.50;;;8.10;93.30;;;;;;5093814;28;20447;-66
2021/10/22 02:05:45;;;;;;;8.33;3.33;;;8.10;93.20;;;;;;5093796;28;20444;-66
2021/10/22 02:08:12;;;;;;;9.27;3.53;;;8.10;93.40;;;;;;5093795;28;20440;-66
2021/10/22 02:10:39;;;;;;;10.87;3.60;;;8.10;93.40;;;;;;5093599;28;20487;-67
2021/10/22 02:13:07;;;;;;;12.07;3.47;;;8.20;93.40;;;;;;5093684;28;20512;-67
2021/10/22 02:15:33;;;;;;;13.53;4.30;;;8.20;93.20;;;;;;5093648;28;20443;-66
2021/10/22 02:18:00;;;;;;;10.20;3.80;;;8.20;93.20;;;;;;5093684;28;20443;-66
2021/10/22 02:20:27;;;;;;;8.03;3.93;;;8.30;93.20;;;;;;5094459;28;20794;-66
2021/10/22 02:22:54;;;;;;;10.53;3.53;;;8.20;92.80;;;;;;5093630;28;20494;-66
2021/10/22 02:25:22;;;;;;;15.83;4.00;;;8.20;92.50;;;;;;5093275;28;20941;-66
2021/10/22 02:27:49;;;;;;;14.00;3.67;;;8.20;92.40;;;;;;5093526;28;20447;-66
2021/10/22 02:30:17;;;;;;;15.30;3.60;;;8.20;92.40;;;;;;5093349;28;20490;-67
2021/10/22 02:32:44;;;;;;;7.73;3.03;;;8.20;92.30;;;;;;5093516;28;20443;-67
2021/10/22 02:35:11;;;;;;;10.23;3.03;;;8.20;92.10;;;;;;5093453;28;20444;-66
2021/10/22 02:37:38;;;;;;;6.87;3.80;;;8.10;91.90;;;;;;5093138;28;20463;-66
2021/10/22 02:40:06;;;;;;;12.80;3.43;;;8.10;92.00;;;;;;5093348;28;20463;-66
2021/10/22 02:42:34;;;;;;;14.43;2.93;;;8.10;92.00;;;;;;5093510;28;20865;-67
2021/10/22 02:45:00;;;;;;;11.67;3.20;;;8.00;91.80;;;;;;5093419;28;20470;-66
2021/10/22 02:47:28;;;;;;;13.00;3.43;;;8.00;91.70;;;;;;5093022;28;20839;-66
2021/10/22 02:49:55;;;;;;;16.37;4.47;;;7.90;91.80;;;;;;5092927;28;20964;-66
2021/10/22 02:52:22;;;;;;;15.50;3.60;;;7.90;91.80;;;;;;5092986;28;20930;-66
2021/10/22 02:54:49;;;;;;;12.90;3.17;;;7.90;91.80;;;;;;5094088;28;20482;-66
2021/10/22 02:57:16;;;;;;;9.67;2.90;;;7.80;91.70;;;;;;5096998;28;20930;-66
2021/10/22 02:59:42;;;;;;;14.63;3.43;;;7.80;91.70;;;;;;5097171;28;20470;-67
2021/10/22 03:02:09;;;;;;;10.23;4.30;;;7.70;91.60;;;;;;5097213;28;20451;-66
2021/10/22 03:04:37;;;;;;;14.27;3.47;;;7.70;91.60;;;;;;5097111;28;20443;-66
2021/10/22 03:07:04;;;;;;;12.23;3.07;;;7.70;91.80;;;;;;5097144;28;20444;-66
2021/10/22 03:09:31;;;;;;;14.50;2.63;;;7.80;92.10;;;;;;5096606;28;20488;-67
2021/10/22 03:11:58;;;;;;;14.17;3.70;;;7.80;91.90;;;;;;5097052;28;20447;-67
2021/10/22 03:14:25;;;;;;;9.63;3.30;;;7.80;91.70;;;;;;5096935;28;20439;-67
2021/10/22 03:16:51;;;;;;;15.00;3.50;;;7.80;91.30;;;;;;5096613;28;20960;-66
2021/10/22 03:19:18;;;;;;;12.93;3.53;;;7.70;91.20;;;;;;5096776;28;20464;-67
2021/10/22 03:21:47;;;;;;;12.20;2.97;;;7.70;91.00;;;;;;5096801;28;20455;-67
2021/10/22 03:24:14;;;;;;;7.23;2.70;;;7.70;91.30;;;;;;5096810;28;20444;-66
2021/10/22 03:26:40;;;;;;;8.03;2.53;;;7.60;91.20;;;;;;5096739;28;20451;-66
2021/10/22 03:29:07;;;;;;;12.20;3.67;;;7.60;91.20;;;;;;5096546;28;20545;-66
2021/10/22 03:31:35;;;;;;;12.87;3.80;;;7.60;91.20;;;;;;5096648;28;20448;-66
2021/10/22 03:34:02;;;;;;;16.10;2.93;;;7.60;91.20;;;;;;5096617;28;20447;-66
2021/10/22 03:36:29;;;;;;;12.67;3.60;;;7.50;91.30;;;;;;5096380;28;20475;-66
2021/10/22 03:38:57;;;;;;;11.23;3.13;;;7.50;91.20;;;;;;5096451;28;20485;-67
2021/10/22 03:41:24;;;;;;;10.97;3.23;;;7.50;91.30;;;;;;5096411;28;20443;-66
2021/10/22 03:43:50;;;;;;;11.37;2.67;;;7.50;91.30;;;;;;5096407;28;20443;-66
2021/10/22 03:46:17;;;;;;;12.50;2.63;;;7.50;91.10;;;;;;5096420;28;20443;-66
2021/10/22 03:48:44;;;;;;;10.60;2.90;;;7.50;91.30;;;;;;5096274;28;20444;-67
2021/10/22 03:51:12;;;;;;;13.80;2.83;;;7.50;91.10;;;;;;5096243;28;20476;-66
2021/10/22 03:53:39;;;;;;;11.43;3.30;;;7.50;91.10;;;;;;5095812;28;20812;-66
2021/10/22 03:56:07;;;;;;;5.40;2.30;;;7.50;91.20;;;;;;5096165;28;20447;-66
2021/10/22 03:58:34;;;;;;;10.00;3.10;;;7.50;91.00;;;;;;5096047;28;20443;-67
2021/10/22 04:01:00;;;;;;;10.30;3.30;;;7.40;91.00;;;;;;5096059;28;20510;-66
2021/10/22 04:03:27;;;;;;;11.63;3.43;;;7.40;91.10;;;;;;5095988;28;20444;-66
2021/10/22 04:05:54;;;;;;;10.13;3.30;;;7.40;91.10;;;;;;5095952;28;20803;-66
2021/10/22 04:08:21;;;;;;;24.70;4.80;;;7.40;91.00;;;;;;5095628;28;20946;-66
2021/10/22 04:10:48;;;;;;;14.00;3.47;;;7.40;91.10;;;;;;5095427;28;21042;-66
2021/10/22 04:13:16;;;;;;;8.47;3.10;;;7.40;91.00;;;;;;5095842;28;20494;-66
2021/10/22 04:15:43;;;;;;;10.87;3.50;;;7.50;91.40;;;;;;5095520;28;20972;-66
2021/10/22 04:18:10;;;;;;;11.80;3.57;;;7.40;90.80;;;;;;5095839;28;20560;-66
2021/10/22 04:20:37;;;;;;;12.50;3.20;;;7.40;90.80;;;;;;5095642;28;20460;-66
2021/10/22 04:23:04;;;;;;;10.37;3.27;;;7.40;90.90;;;;;;5095687;28;20416;-66
2021/10/22 04:25:32;;;;;;;9.10;3.07;;;7.50;90.80;;;;;;5095562;28;20446;-66
2021/10/22 04:28:00;;;;;;;14.63;3.47;;;7.40;90.80;;;;;;5095250;28;20913;-66
2021/10/22 04:30:28;;;;;;;11.17;3.50;;;7.40;90.80;;;;;;5095239;28;20487;-66
2021/10/22 04:32:55;;;;;;;9.90;3.30;;;7.40;90.90;;;;;;5095458;28;20483;-66
2021/10/22 04:35:22;;;;;;;9.33;3.00;;;7.40;90.80;;;;;;5096041;28;20439;-66
2021/10/22 04:38:00;;;;;;;11.43;4.03;;;7.50;90.90;;;;;;5094965;28;20913;-66
2021/10/22 04:40:31;;;;;;;11.03;4.50;;;7.40;90.70;;;;;;5095323;28;20818;-66
2021/10/22 04:43:00;;;;;;;9.30;3.53;;;7.50;90.70;;;;;;5095364;28;20432;-66
2021/10/22 04:45:29;;;;;;;15.30;4.07;;;7.40;90.60;;;;;;5095004;28;20486;-66
2021/10/22 04:47:56;;;;;;;14.77;4.30;;;7.40;91.00;;;;;;5094877;28;20435;-66
2021/10/22 04:50:23;;;;;;;8.93;3.87;;;7.40;90.90;;;;;;5094744;28;20487;-66
2021/10/22 04:52:53;;;;;;;13.80;3.93;;;7.40;90.70;;;;;;5095032;28;20451;-66
2021/10/22 04:55:21;;;;;;;9.93;3.40;;;7.50;90.60;;;;;;5094908;28;20459;-66
2021/10/22 04:57:47;;;;;;;15.93;3.70;;;7.40;90.50;;;;;;5094907;28;20459;-66
2021/10/22 05:00:15;;;;;;;12.43;3.13;;;7.40;90.30;;;;;;5094536;28;20466;-66
2021/10/22 05:02:43;;;;;;;14.63;3.47;;;7.40;90.50;;;;;;5094906;28;20436;-66
2021/10/22 05:05:10;;;;;;;14.07;3.43;;;7.40;90.50;;;;;;5094804;28;20448;-66
2021/10/22 05:07:36;;;;;;;9.20;3.60;;;7.40;90.40;;;;;;5094769;28;20781;-66
2021/10/22 05:10:04;;;;;;;9.07;3.23;;;7.40;90.40;;;;;;5094573;28;20495;-66
2021/10/22 05:12:30;;;;;;;13.10;4.00;;;7.40;90.30;;;;;;5094657;28;20429;-66
2021/10/22 05:14:57;;;;;;;14.17;4.07;;;7.40;90.20;;;;;;5094718;28;20431;-66
2021/10/22 05:17:25;;;;;;;11.67;3.33;;;7.40;90.40;;;;;;5093793;28;20937;-66
2021/10/22 05:19:54;;;;;;;9.63;3.23;;;7.40;90.40;;;;;;5094534;28;20872;-66
2021/10/22 05:22:21;;;;;;;10.93;3.43;;;7.40;90.50;;;;;;5094465;28;20466;-66
2021/10/22 05:24:47;;;;;;;9.47;3.77;;;7.40;90.50;;;;;;5094523;28;20500;-66
2021/10/22 05:27:15;;;;;;;9.30;2.50;;;7.40;90.40;;;;;;5094418;28;20424;-66
2021/10/22 05:29:41;;;;;;;7.60;3.10;;;7.40;90.30;;;;;;5094186;28;20487;-66
2021/10/22 05:32:08;;;;;;;8.03;3.00;;;7.40;90.30;;;;;;5094261;28;20455;-66
2021/10/22 05:34:35;;;;;;;10.87;3.73;;;7.40;90.10;;;;;;5094308;28;20452;-66
2021/10/22 05:37:03;;;;;;;10.70;2.90;;;7.40;90.50;;;;;;5094018;28;20840;-66
2021/10/22 05:39:30;;;;;;;12.07;2.97;;;7.40;90.10;;;;;;5094985;28;20471;-65
2021/10/22 05:42:20;;;;;;;6.17;3.20;;;7.40;90.10;;;;;;5094195;28;20440;-65
2021/10/22 05:45:39;;;;;;;14.70;3.20;;;7.40;90.00;;;;;;5094178;28;20507;-65
2021/10/22 05:48:09;;;;;;;14.67;3.50;;;7.40;90.00;;;;;;5093577;28;20447;-65
2021/10/22 05:50:39;;;;;;;12.77;3.13;;;7.40;90.00;;;;;;5093224;28;20896;-65
2021/10/22 05:53:07;;;;;;;7.93;3.70;;;7.40;89.70;;;;;;5094030;28;20428;-65
2021/10/22 05:55:33;;;;;;;11.40;3.33;;;7.40;89.90;;;;;;5093949;28;20456;-65
2021/10/22 05:58:00;;;;;;;14.03;2.90;;;7.30;90.00;;;;;;5093956;28;20424;-65
2021/10/22 06:00:27;;;;;;;8.17;2.60;;;7.30;89.30;;;;;;5093567;28;20466;-65
2021/10/22 06:02:55;;;;;;;9.80;3.57;;;7.30;89.70;;;;;;5093825;28;20439;-65
2021/10/22 06:05:22;;;;;;;7.40;2.90;;;7.30;89.60;;;;;;5094434;28;20539;-65
2021/10/22 06:07:48;;;;;;;12.87;5.20;;;7.30;89.30;;;;;;5093824;28;20424;-65
2021/10/22 06:10:16;;;;;;;11.50;4.97;;;7.30;89.50;;;;;;5093296;28;20828;-65
2021/10/22 06:12:43;;;;;;;13.73;3.27;;;7.30;89.00;;;;;;5093730;28;20428;-65
2021/10/22 06:15:10;;;;;;;11.03;3.63;;;7.30;89.00;;;;;;5093724;28;20440;-65
2021/10/22 06:17:37;;;;;;;6.67;2.90;;;7.30;89.30;;;;;;5093694;28;20448;-65
2021/10/22 06:20:11;;;;;;;11.63;2.83;;;7.30;89.30;;;;;;5093673;28;20460;-66
2021/10/22 06:22:51;;;;;;;9.10;3.20;;;7.30;89.10;;;;;;5093668;28;20434;-66
2021/10/22 06:25:20;;;;;;;12.10;3.10;;;7.30;89.10;;;;;;5093630;28;20458;-65
2021/10/22 06:27:55;;;;;;;11.87;2.70;;;7.30;89.10;;;;;;5093621;28;20443;-65
2021/10/22 06:30:47;;;;;;;9.37;3.23;;;7.40;89.20;;;;;;5095233;28;20490;-65
2021/10/22 06:33:22;;;;;;;7.80;2.30;;;7.40;88.50;;;;;;5097869;28;20432;-65
2021/10/22 06:35:50;;;;;;;9.77;3.53;;;7.50;88.50;;;;;;5097595;28;20515;-65
2021/10/22 06:38:16;;;;;;;7.80;3.03;;;7.50;88.20;;;;;;5097806;28;20526;-65
2021/10/22 06:40:44;;;;;;;8.83;2.90;;;7.50;88.00;;;;;;5097495;28;20470;-65
2021/10/22 06:43:11;;;;;;;6.73;2.67;;;7.50;88.50;;;;;;5097503;28;20538;-65
2021/10/22 06:45:38;;;;;;;13.40;2.73;;;7.50;88.30;;;;;;5097341;28;20909;-65
2021/10/22 06:48:05;;;;;;;5.87;2.50;;;7.50;88.10;;;;;;5097460;28;20502;-65
2021/10/22 06:50:32;;;;;;;15.47;3.03;;;7.50;88.10;;;;;;5097369;28;20537;-70
2021/10/22 06:52:59;;;;;;;6.03;2.00;;;7.50;88.20;;;;;;5097344;28;20447;-70
2021/10/22 06:55:26;;;;;;;7.17;2.90;;;7.50;87.60;;;;;;5096993;28;20444;-71
2021/10/22 06:57:54;;;;;;;7.83;2.73;;;7.60;88.30;;;;;;5097441;28;20431;-70
2021/10/22 07:00:21;;;;;;;8.50;2.20;;;7.70;87.80;;;;;;5096848;28;20471;-71
2021/10/22 07:02:49;;;;;;;5.27;2.30;;;7.70;87.60;;;;;;5097238;28;20444;-70
2021/10/22 07:05:27;;;;;;;8.23;3.07;;;7.80;87.90;;;;;;5097190;28;20444;-70
2021/10/22 07:07:56;;;;;;;6.07;2.60;;;7.80;87.60;;;;;;5097166;28;20510;-70
2021/10/22 07:10:24;;;;;;;7.47;2.40;;;7.80;87.50;;;;;;5097028;28;20485;-71
2021/10/22 07:12:51;;;;;;;8.10;2.30;;;7.80;87.80;;;;;;5096995;28;20454;-71
2021/10/22 07:15:33;;;;;;;5.30;2.10;;;7.90;88.10;;;;;;5097009;28;20483;-71
2021/10/22 07:18:16;;;;;;;7.13;2.53;;;7.90;88.00;;;;;;5096655;28;20954;-71
2021/10/22 07:20:59;;;;;;;9.97;2.30;;;7.80;87.20;;;;;;5096511;28;20471;-71
2021/10/22 07:23:35;;;;;;;4.97;2.13;;;7.90;87.60;;;;;;5097031;28;20452;-70
2021/10/22 07:26:01;;;;;;;8.00;1.97;;;7.90;88.20;;;;;;5096419;28;20435;-71
2021/10/22 07:28:28;;;;;;;7.13;2.33;;;7.90;87.70;;;;;;5096814;28;20428;-70
2021/10/22 07:30:56;;;;;;;9.30;2.87;;;7.90;87.90;;;;;;5096449;28;20487;-70
2021/10/22 07:33:23;;;;;;;7.60;2.57;;;8.00;87.80;;;;;;5096685;28;20440;-71
2021/10/22 07:35:50;;;;;;;5.60;2.30;;;8.00;88.00;;;;;;5096428;28;20483;-71
2021/10/22 07:38:16;;;;;;;10.60;2.40;;;8.00;88.00;;;;;;5096579;28;20432;-70
2021/10/22 07:40:45;;;;;;;11.27;2.40;;;8.00;87.30;;;;;;5095922;28;20497;-71
2021/10/22 07:43:13;;;;;;;8.13;2.50;;;8.10;87.80;;;;;;5096448;28;20851;-70
2021/10/22 07:45:41;;;;;;;5.77;2.10;;;8.10;87.50;;;;;;5096157;28;20451;-70
2021/10/22 07:48:09;;;;;;;6.13;2.27;;;8.20;87.20;;;;;;5096476;28;20444;-71
2021/10/22 07:50:35;;;;;;;6.33;2.50;;;8.10;86.80;;;;;;5096313;28;20510;-71
2021/10/22 07:53:06;;;;;;;7.40;3.70;;;8.20;88.00;;;;;;5095970;28;20447;-70
2021/10/22 07:55:35;;;;;;;8.87;2.20;;;8.30;87.70;;;;;;5096313;28;20439;-70
2021/10/22 07:58:02;;;;;;;11.67;2.60;;;8.40;87.30;;;;;;5096222;28;20455;-71
2021/10/22 08:00:32;;;;;;;7.23;2.53;;;8.40;86.20;;;;;;5096716;28;20541;-71
2021/10/22 08:02:59;;;;;;;8.43;3.20;;;8.40;85.80;;;;;;5101187;28;20455;-71
2021/10/22 08:05:28;;;;;;;6.60;1.80;;;8.50;86.10;;;;;;5095981;28;20507;-71
2021/10/22 08:07:55;;;;;;;10.53;2.43;;;8.50;86.50;;;;;;5095897;28;20443;-70
2021/10/22 08:10:23;;;;;;;6.00;2.30;;;8.50;86.20;;;;;;5095873;28;20467;-70
2021/10/22 08:12:50;;;;;;;5.93;2.00;;;8.60;86.60;;;;;;5095902;28;20452;-70
2021/10/22 08:15:17;;;;;;;8.83;2.23;;;8.60;85.70;;;;;;5095910;28;20439;-70
2021/10/22 08:17:44;;;;;;;10.07;2.40;;;8.70;86.20;;;;;;5095890;28;20428;-70
2021/10/22 08:20:16;;;;;;;8.93;2.03;;;8.70;86.40;;;;;;5095772;28;20464;-70
2021/10/22 08:22:44;;;;;;;6.57;2.40;;;8.80;86.70;;;;;;5096416;28;20489;-70
2021/10/22 08:25:13;;;;;;;6.00;1.93;;;8.80;85.20;;;;;;5095743;28;20447;-70
2021/10/22 08:27:42;;;;;;;6.03;2.00;;;8.90;85.20;;;;;;5095621;28;20454;-70
2021/10/22 08:30:13;;;;;;;7.53;2.27;;;9.00;86.40;;;;;;5095198;28;20468;-70
2021/10/22 08:32:41;;;;;;;9.17;1.90;;;9.10;85.80;;;;;;5095610;28;20463;-70
2021/10/22 08:35:09;;;;;;;6.37;1.80;;;9.20;85.40;;;;;;5095406;28;20453;-71
2021/10/22 08:37:37;;;;;;;6.97;2.00;;;9.30;84.90;;;;;;5095095;28;20459;-70
2021/10/22 08:40:07;;;;;;;13.53;3.00;;;9.40;84.70;;;;;;5094970;28;20999;-70
2021/10/22 08:42:34;;;;;;;6.37;1.77;;;9.50;84.60;;;;;;5095374;28;20440;-70
2021/10/22 08:45:01;;;;;;;6.60;1.73;;;9.60;83.80;;;;;;5095255;28;20447;-70
2021/10/22 08:47:30;;;;;;;7.17;2.33;;;9.70;83.50;;;;;;5095191;28;20451;-70
2021/10/22 08:49:58;;;;;;;7.70;2.30;;;9.90;84.20;;;;;;5094909;28;20996;-70
2021/10/22 08:52:25;;;;;;;7.10;2.40;;;10.00;82.70;;;;;;5094145;28;20479;-70
2021/10/22 08:54:52;;;;;;;6.00;1.87;;;10.00;81.90;;;;;;5095035;28;20447;-70
2021/10/22 08:57:20;;;;;;;9.70;2.40;;;10.10;82.40;;;;;;5094999;28;20493;-70
2021/10/22 08:59:47;;;;;;;6.13;1.90;;;10.10;82.10;;;;;;5094623;28;21012;-70
2021/10/22 09:02:21;;;;;;;6.77;1.60;;;10.10;80.80;;;;;;5094900;28;20435;-70
2021/10/22 09:04:49;;;;;;;8.93;2.57;;;10.20;82.00;;;;;;5094920;28;20435;-70
2021/10/22 09:07:18;;;;;;;6.20;2.10;;;10.20;81.10;;;;;;5094829;28;20446;-70
2021/10/22 09:09:45;;;;;;;7.90;2.20;;;10.30;81.80;;;;;;5094867;28;20467;-71
2021/10/22 09:12:12;;;;;;;6.80;1.83;;;10.40;81.50;;;;;;5094685;28;20490;-70
2021/10/22 09:14:58;;;;;;;6.67;2.30;;;10.40;81.50;;;;;;5094964;28;20450;-70
2021/10/22 09:17:34;;;;;;;5.63;1.90;;;10.50;79.90;;;;;;5094339;28;20893;-70
2021/10/22 09:20:01;;;;;;;9.90;2.67;;;10.40;80.20;;;;;;5094585;28;20474;-70
2021/10/22 09:22:30;;;;;;;9.97;1.90;;;10.40;81.30;;;;;;5094580;28;20443;-70
2021/10/22 09:25:01;;;;;;;6.93;2.43;;;10.40;81.10;;;;;;5094694;28;20444;-71
2021/10/22 09:27:46;;;;;;;6.30;1.83;;;10.50;81.00;;;;;;5094999;28;20428;-70
2021/10/22 09:30:30;;;;;;;4.47;2.40;;;10.40;80.50;;;;;;5076998;28;20497;-70
2021/10/22 09:32:59;;;;;;;5.63;1.87;;;10.50;81.80;;;;;;5094243;28;20463;-70
2021/10/22 09:35:43;;;;;;;10.47;2.00;;;10.50;80.90;;;;;;5094420;28;20447;-70
2021/10/22 09:38:16;;;;;;;8.33;1.70;;;10.60;82.10;;;;;;5095013;28;20436;-70
2021/10/22 09:40:44;;;;;;;6.50;2.13;;;10.60;81.20;;;;;;5094195;28;20456;-70
2021/10/22 09:43:16;;;;;;;7.30;1.93;;;10.60;81.80;;;;;;5094143;28;20463;-70
2021/10/22 09:45:46;;;;;;;6.50;2.33;;;10.60;80.80;;;;;;5094575;28;20488;-70
2021/10/22 09:48:24;;;;;;;7.63;1.60;;;10.70;81.40;;;;;;5094167;28;20839;-70
2021/10/22 09:50:59;;;;;;;8.50;2.00;;;10.80;82.30;;;;;;5101199;28;20463;-70
2021/10/22 09:53:29;;;;;;;5.60;2.20;;;10.80;81.20;;;;;;5096232;28;20551;-71
2021/10/22 09:56:07;;;;;;;11.03;2.43;;;10.90;80.70;;;;;;5094039;28;20817;-71
2021/10/22 09:58:35;;;;;;;4.73;1.80;;;11.10;81.30;;;;;;5094049;28;20428;-71
2021/10/22 10:01:13;;;;;;;7.60;1.90;;;11.10;79.80;;;;;;5093551;28;20979;-71
2021/10/22 10:03:42;;;;;;;11.33;2.40;;;11.30;79.00;;;;;;5093418;28;20815;-71
2021/10/22 10:06:11;;;;;;;4.33;1.63;;;11.40;79.60;;;;;;5093952;28;20440;-71
2021/10/22 10:08:39;;;;;;;9.67;2.77;;;11.40;80.30;;;;;;5093858;28;20852;-70
2021/10/22 10:11:07;;;;;;;3.63;1.90;;;11.50;80.90;;;;;;5093382;28;20933;-70
2021/10/22 10:13:34;;;;;;;9.83;2.30;;;11.60;78.90;;;;;;5093333;28;20820;-71
2021/10/22 10:16:07;;;;;;;7.03;2.10;;;11.80;77.90;;;;;;5093808;28;20438;-72
2021/10/22 10:18:45;;;;;;;6.93;1.87;;;11.90;77.30;;;;;;5093396;28;20443;-70
2021/10/22 10:21:15;;;;;;;6.00;1.60;;;12.10;77.20;;;;;;5093711;28;20420;-72
2021/10/22 10:23:44;;;;;;;5.80;2.37;;;12.40;75.10;;;;;;5093404;28;20435;-72
2021/10/22 10:26:22;;;;;;;6.40;2.10;;;12.50;75.10;;;;;;5093710;28;20471;-72
2021/10/22 10:28:50;;;;;;;5.23;2.00;;;12.90;73.20;;;;;;5093248;28;20447;-71
2021/10/22 10:31:31;;;;;;;6.73;1.97;;;13.10;73.70;;;;;;5093487;28;20548;-71
2021/10/22 10:34:00;;;;;;;4.50;1.80;;;13.40;71.50;;;;;;5093254;28;20920;-71
2021/10/22 10:36:47;;;;;;;5.27;1.80;;;13.50;70.20;;;;;;5093269;28;20462;-72
2021/10/22 10:39:14;;;;;;;9.03;2.00;;;13.50;71.50;;;;;;5093148;28;20460;-71
2021/10/22 10:41:41;;;;;;;5.13;2.10;;;13.60;70.90;;;;;;5093541;28;20431;-72
2021/10/22 10:44:32;;;;;;;7.17;1.90;;;13.30;70.20;;;;;;5093498;28;20538;-72
2021/10/22 10:46:59;;;;;;;8.03;2.03;;;13.10;71.50;;;;;;5093451;28;20440;-72
2021/10/22 10:50:00;;;;;;;4.87;1.87;;;13.30;71.70;;;;;;5093299;28;20460;-71
2021/10/22 10:52:52;;;;;;;4.97;2.03;;;13.60;70.40;;;;;;5093378;28;20466;-73
2021/10/22 10:55:25;;;;;;;6.60;2.13;;;13.60;69.50;;;;;;5093091;28;20428;-71
2021/10/22 10:57:53;;;;;;;7.43;1.90;;;13.60;69.50;;;;;;5093321;28;20444;-71
2021/10/22 11:00:23;;;;;;;8.73;1.50;;;14.00;69.40;;;;;;5093254;28;20468;-71
2021/10/22 11:03:15;;;;;;;7.13;1.80;;;14.10;67.60;;;;;;5093246;28;20439;-71
2021/10/22 11:06:10;;;;;;;7.57;2.30;;;14.00;67.80;;;;;;5093272;28;20440;-71
2021/10/22 11:08:45;;;;;;;8.03;2.37;;;13.90;66.30;;;;;;5057055;28;20518;-71
2021/10/22 11:11:33;;;;;;;5.63;1.87;;;13.80;67.20;;;;;;5093142;28;20519;-71
2021/10/22 11:14:17;;;;;;;6.97;1.80;;;13.60;66.30;;;;;;5093194;28;20439;-71
2021/10/22 11:17:09;;;;;;;10.03;2.90;;;13.30;68.00;;;;;;5095956;28;20847;-71
2021/10/22 11:19:38;;;;;;;7.57;2.00;;;13.00;69.70;;;;;;5096826;28;20467;-71
2021/10/22 11:22:11;;;;;;;3.80;1.87;;;13.00;71.00;;;;;;5096961;28;20781;-71
2021/10/22 11:24:40;;;;;;;7.97;1.37;;;13.10;70.00;;;;;;5096601;28;20898;-71
2021/10/22 11:27:08;;;;;;;5.90;2.10;;;13.40;69.40;;;;;;5096767;28;20466;-72
2021/10/22 11:29:37;;;;;;;5.30;2.37;;;13.90;66.50;;;;;;5096744;28;20854;-71
2021/10/22 11:32:09;;;;;;;5.67;1.70;;;14.00;66.00;;;;;;5096681;28;20813;-71
2021/10/22 11:34:37;;;;;;;5.13;1.83;;;14.00;65.70;;;;;;5096726;28;20427;-71
2021/10/22 11:37:07;;;;;;;9.07;2.20;;;13.90;67.40;;;;;;5096306;28;20550;-71
2021/10/22 11:39:37;;;;;;;6.00;1.77;;;13.80;67.30;;;;;;5096597;28;20517;-72
2021/10/22 11:42:24;;;;;;;6.07;2.40;;;13.70;67.20;;;;;;5096604;28;20428;-72
2021/10/22 11:44:54;;;;;;;9.90;2.10;;;13.60;67.90;;;;;;5096433;28;20428;-72
2021/10/22 11:47:22;;;;;;;5.50;1.90;;;13.60;68.30;;;;;;5096346;28;20436;-71
2021/10/22 11:49:49;;;;;;;11.57;1.93;;;13.30;68.60;;;;;;5096592;28;20467;-71
2021/10/22 11:52:18;;;;;;;5.37;2.00;;;13.10;68.60;;;;;;5096234;28;20497;-72
2021/10/22 11:54:48;;;;;;;12.73;2.03;;;13.10;71.30;;;;;;5096262;28;20474;-72
2021/10/22 11:57:17;;;;;;;7.97;1.97;;;13.70;68.00;;;;;;5096310;28;20797;-72
2021/10/22 11:59:52;;;;;;;6.47;1.90;;;14.00;67.30;;;;;;5096145;28;20471;-71
2021/10/22 12:02:20;;;;;;;7.23;1.97;;;14.30;67.20;;;;;;5096114;28;20450;-72
2021/10/22 12:04:52;;;;;;;6.20;2.37;;;14.50;65.60;;;;;;5096084;28;20432;-72
2021/10/22 12:07:18;;;;;;;6.00;2.20;;;14.50;66.00;;;;;;5096052;28;20424;-72
2021/10/22 12:09:46;;;;;;;5.40;1.57;;;14.40;66.10;;;;;;5096266;28;20463;-72
2021/10/22 12:12:15;;;;;;;9.00;2.10;;;14.20;65.50;;;;;;5095894;28;20479;-72
2021/10/22 12:14:45;;;;;;;13.03;2.03;;;14.00;65.80;;;;;;5095897;28;20920;-72
2021/10/22 12:17:14;;;;;;;8.53;2.73;;;13.80;66.30;;;;;;5096335;28;20451;-72
2021/10/22 12:19:44;;;;;;;5.67;2.00;;;13.60;66.60;;;;;;5096401;28;20467;-72
2021/10/22 12:22:11;;;;;;;8.90;1.83;;;13.30;67.40;;;;;;5096440;28;20436;-72
2021/10/22 12:24:39;;;;;;;4.00;1.77;;;13.00;69.70;;;;;;5096660;28;20901;-72
2021/10/22 12:27:08;;;;;;;5.23;1.60;;;13.00;70.70;;;;;;5095432;28;20447;-72
2021/10/22 12:29:59;;;;;;;3.37;1.53;;;12.90;70.20;;;;;;5096079;28;20831;-72
2021/10/22 12:32:38;;;;;;;8.07;1.63;;;12.70;71.20;;;;;;5096276;28;20463;-72
2021/10/22 12:35:10;;;;;;;4.77;1.90;;;12.70;73.10;;;;;;5096238;28;20444;-72
2021/10/22 12:37:40;;;;;;;3.80;1.20;;;12.80;71.90;;;;;;5096175;28;20456;-72
2021/10/22 12:40:19;;;;;;;8.93;1.90;;;12.80;72.10;;;;;;5096176;28;20524;-72
2021/10/22 12:43:02;;;;;;;10.93;2.40;;;12.80;71.10;;;;;;5095602;28;21044;-72
2021/10/22 12:45:29;;;;;;;10.00;1.90;;;12.80;71.60;;;;;;5096089;28;20439;-72
2021/10/22 12:47:57;;;;;;;8.40;2.20;;;12.80;71.10;;;;;;5095508;28;20905;-72
2021/10/22 12:50:26;;;;;;;9.07;2.33;;;12.70;71.50;;;;;;5095578;28;20991;-72
2021/10/22 12:52:58;;;;;;;6.30;1.60;;;12.70;72.90;;;;;;5095568;28;20483;-72
2021/10/22 12:55:26;;;;;;;5.10;1.70;;;12.80;72.80;;;;;;5095322;28;20890;-72
2021/10/22 12:58:12;;;;;;;5.13;1.67;;;12.70;73.00;;;;;;5095425;28;20964;-73
2021/10/22 13:00:40;;;;;;;7.30;1.97;;;12.70;72.80;;;;;;5095428;28;20463;-72
2021/10/22 13:03:07;;;;;;;11.47;2.10;;;12.50;73.60;;;;;;5095799;28;20489;-72
2021/10/22 13:05:36;;;;;;;5.93;1.97;;;12.60;74.00;;;;;;5095502;28;20451;-72
2021/10/22 13:10:57;;;;;;;6.90;1.90;;;12.60;73.60;;;;;;5095771;28;20439;-72